sensor_id;sensor_type;location;lat;lon;timestamp;P1;durP1;ratioP1;P2;durP2;ratioP2
41861;SDS011;27537;57.134;-2.136;2023-04-30T00:02:22;10.23;;;2.95;;
41861;SDS011;27537;57.134;-2.136;2023-04-30T00:04:49;14.50;;;3.35;;
41861;SDS011;27537;57.134;-2.136;2023-04-30T00:07:16;10.07;;;3.15;;
41861;SDS011;27537;57.134;-2.136;2023-04-30T00:09:43;14.10;;;3.70;;
41861;SDS011;27537;57.134;-2.136;2023-04-30T00:12:09;10.95;;;3.90;;
41861;SDS011;27537;57.134;-2.136;2023-04-30T00:14:36;16.85;;;3.70;;
41861;SDS011;27537;57.134;-2.136;2023-04-30T00:17:03;8.20;;;2.75;;
41861;SDS011;27537;57.134;-2.136;2023-04-30T00:19:30;13.93;;;3.53;;
41861;SDS011;27537;57.134;-2.136;2023-04-30T00:21:56;11.80;;;3.53;;
41861;SDS011;27537;57.134;-2.136;2023-04-30T00:24:23;10.73;;;3.03;;
41861;SDS011;27537;57.134;-2.136;2023-04-30T00:26:50;13.32;;;3.47;;
41861;SDS011;27537;57.134;-2.136;2023-04-30T00:29:17;13.82;;;3.08;;
41861;SDS011;27537;57.134;-2.136;2023-04-30T00:31:43;11.35;;;3.58;;
41861;SDS011;27537;57.134;-2.136;2023-04-30T00:34:10;9.73;;;2.60;;
41861;SDS011;27537;57.134;-2.136;2023-04-30T00:36:37;10.88;;;3.17;;
41861;SDS011;27537;57.134;-2.136;2023-04-30T00:39:05;12.20;;;3.85;;
41861;SDS011;27537;57.134;-2.136;2023-04-30T00:41:33;11.82;;;3.70;;
41861;SDS011;27537;57.134;-2.136;2023-04-30T00:44:00;10.00;;;3.30;;
41861;SDS011;27537;57.134;-2.136;2023-04-30T00:46:28;12.00;;;3.28;;
41861;SDS011;27537;57.134;-2.136;2023-04-30T00:48:55;10.07;;;2.88;;
41861;SDS011;27537;57.134;-2.136;2023-04-30T00:51:22;13.88;;;3.30;;
41861;SDS011;27537;57.134;-2.136;2023-04-30T00:53:49;16.90;;;3.45;;
41861;SDS011;27537;57.134;-2.136;2023-04-30T00:56:16;11.00;;;3.40;;
41861;SDS011;27537;57.134;-2.136;2023-04-30T00:58:44;12.82;;;2.92;;
41861;SDS011;27537;57.134;-2.136;2023-04-30T01:01:11;19.25;;;4.40;;
41861;SDS011;27537;57.134;-2.136;2023-04-30T01:03:38;9.63;;;2.80;;
41861;SDS011;27537;57.134;-2.136;2023-04-30T01:06:05;13.75;;;3.42;;
41861;SDS011;27537;57.134;-2.136;2023-04-30T01:08:31;11.55;;;3.05;;
41861;SDS011;27537;57.134;-2.136;2023-04-30T01:13:52;13.10;;;3.58;;
41861;SDS011;27537;57.134;-2.136;2023-04-30T01:16:29;14.65;;;3.53;;
41861;SDS011;27537;57.134;-2.136;2023-04-30T01:19:08;12.27;;;3.22;;
41861;SDS011;27537;57.134;-2.136;2023-04-30T01:21:41;14.90;;;3.78;;
41861;SDS011;27537;57.134;-2.136;2023-04-30T01:29:33;14.43;;;4.93;;
41861;SDS011;27537;57.134;-2.136;2023-04-30T01:32:00;10.05;;;2.53;;
41861;SDS011;27537;57.134;-2.136;2023-04-30T01:34:28;15.25;;;4.43;;
41861;SDS011;27537;57.134;-2.136;2023-04-30T01:39:49;14.15;;;4.18;;
41861;SDS011;27537;57.134;-2.136;2023-04-30T01:50:49;12.23;;;3.17;;
41861;SDS011;27537;57.134;-2.136;2023-04-30T01:53:41;13.52;;;4.18;;
41861;SDS011;27537;57.134;-2.136;2023-04-30T01:56:44;13.30;;;4.20;;
41861;SDS011;27537;57.134;-2.136;2023-04-30T01:59:09;10.90;;;3.28;;
41861;SDS011;27537;57.134;-2.136;2023-04-30T02:01:39;13.10;;;3.28;;
41861;SDS011;27537;57.134;-2.136;2023-04-30T02:04:06;20.00;;;4.47;;
41861;SDS011;27537;57.134;-2.136;2023-04-30T02:06:33;12.20;;;3.03;;
41861;SDS011;27537;57.134;-2.136;2023-04-30T02:09:00;16.23;;;4.10;;
41861;SDS011;27537;57.134;-2.136;2023-04-30T02:11:31;13.35;;;3.70;;
41861;SDS011;27537;57.134;-2.136;2023-04-30T02:13:58;18.67;;;4.45;;
41861;SDS011;27537;57.134;-2.136;2023-04-30T02:16:24;11.10;;;3.38;;
41861;SDS011;27537;57.134;-2.136;2023-04-30T02:18:51;13.27;;;3.38;;
41861;SDS011;27537;57.134;-2.136;2023-04-30T02:21:18;21.77;;;4.43;;
41861;SDS011;27537;57.134;-2.136;2023-04-30T02:23:45;12.63;;;3.30;;
41861;SDS011;27537;57.134;-2.136;2023-04-30T02:26:12;26.20;;;4.93;;
41861;SDS011;27537;57.134;-2.136;2023-04-30T02:28:38;14.90;;;3.80;;
41861;SDS011;27537;57.134;-2.136;2023-04-30T02:31:05;11.80;;;3.22;;
41861;SDS011;27537;57.134;-2.136;2023-04-30T02:33:32;13.32;;;3.78;;
41861;SDS011;27537;57.134;-2.136;2023-04-30T02:35:59;13.32;;;3.30;;
41861;SDS011;27537;57.134;-2.136;2023-04-30T02:38:26;10.25;;;3.20;;
41861;SDS011;27537;57.134;-2.136;2023-04-30T02:40:52;14.43;;;4.10;;
41861;SDS011;27537;57.134;-2.136;2023-04-30T02:43:19;10.48;;;3.63;;
41861;SDS011;27537;57.134;-2.136;2023-04-30T02:45:46;16.40;;;4.55;;
41861;SDS011;27537;57.134;-2.136;2023-04-30T02:48:13;9.90;;;3.15;;
41861;SDS011;27537;57.134;-2.136;2023-04-30T02:50:40;17.08;;;4.97;;
41861;SDS011;27537;57.134;-2.136;2023-04-30T02:53:07;10.98;;;3.65;;
41861;SDS011;27537;57.134;-2.136;2023-04-30T02:55:34;15.63;;;4.28;;
41861;SDS011;27537;57.134;-2.136;2023-04-30T02:58:00;16.45;;;4.32;;
41861;SDS011;27537;57.134;-2.136;2023-04-30T03:00:27;20.45;;;4.15;;
41861;SDS011;27537;57.134;-2.136;2023-04-30T03:02:54;13.80;;;3.90;;
41861;SDS011;27537;57.134;-2.136;2023-04-30T03:05:22;19.98;;;4.53;;
41861;SDS011;27537;57.134;-2.136;2023-04-30T03:07:49;14.95;;;3.83;;
41861;SDS011;27537;57.134;-2.136;2023-04-30T03:10:16;12.35;;;3.72;;
41861;SDS011;27537;57.134;-2.136;2023-04-30T03:12:44;15.40;;;4.30;;
41861;SDS011;27537;57.134;-2.136;2023-04-30T03:15:11;13.30;;;3.72;;
41861;SDS011;27537;57.134;-2.136;2023-04-30T03:17:38;17.45;;;3.92;;
41861;SDS011;27537;57.134;-2.136;2023-04-30T03:20:05;15.55;;;5.50;;
41861;SDS011;27537;57.134;-2.136;2023-04-30T03:22:32;13.13;;;4.43;;
41861;SDS011;27537;57.134;-2.136;2023-04-30T03:24:59;12.13;;;3.90;;
41861;SDS011;27537;57.134;-2.136;2023-04-30T03:27:26;14.82;;;4.07;;
41861;SDS011;27537;57.134;-2.136;2023-04-30T03:29:52;10.05;;;2.80;;
41861;SDS011;27537;57.134;-2.136;2023-04-30T03:32:20;11.32;;;3.38;;
41861;SDS011;27537;57.134;-2.136;2023-04-30T03:34:46;13.63;;;4.53;;
41861;SDS011;27537;57.134;-2.136;2023-04-30T03:37:13;16.77;;;5.68;;
41861;SDS011;27537;57.134;-2.136;2023-04-30T03:39:40;13.05;;;3.55;;
41861;SDS011;27537;57.134;-2.136;2023-04-30T03:42:07;12.60;;;4.07;;
41861;SDS011;27537;57.134;-2.136;2023-04-30T03:44:33;11.27;;;3.95;;
41861;SDS011;27537;57.134;-2.136;2023-04-30T03:47:00;18.42;;;4.70;;
41861;SDS011;27537;57.134;-2.136;2023-04-30T03:49:27;15.50;;;3.95;;
41861;SDS011;27537;57.134;-2.136;2023-04-30T03:51:53;18.05;;;4.22;;
41861;SDS011;27537;57.134;-2.136;2023-04-30T03:54:20;14.30;;;4.50;;
41861;SDS011;27537;57.134;-2.136;2023-04-30T03:56:47;18.08;;;4.93;;
41861;SDS011;27537;57.134;-2.136;2023-04-30T03:59:13;17.77;;;4.40;;
41861;SDS011;27537;57.134;-2.136;2023-04-30T04:01:40;12.35;;;4.18;;
41861;SDS011;27537;57.134;-2.136;2023-04-30T04:04:07;15.13;;;3.97;;
41861;SDS011;27537;57.134;-2.136;2023-04-30T04:06:34;22.45;;;5.90;;
41861;SDS011;27537;57.134;-2.136;2023-04-30T04:09:01;15.25;;;4.78;;
41861;SDS011;27537;57.134;-2.136;2023-04-30T04:11:29;18.15;;;4.82;;
41861;SDS011;27537;57.134;-2.136;2023-04-30T04:13:56;17.60;;;4.85;;
41861;SDS011;27537;57.134;-2.136;2023-04-30T04:16:23;15.82;;;5.38;;
41861;SDS011;27537;57.134;-2.136;2023-04-30T04:18:49;15.68;;;4.47;;
41861;SDS011;27537;57.134;-2.136;2023-04-30T04:21:16;16.88;;;4.78;;
41861;SDS011;27537;57.134;-2.136;2023-04-30T04:23:43;18.67;;;4.82;;
41861;SDS011;27537;57.134;-2.136;2023-04-30T04:26:10;13.13;;;3.83;;
41861;SDS011;27537;57.134;-2.136;2023-04-30T04:28:37;18.05;;;3.75;;
41861;SDS011;27537;57.134;-2.136;2023-04-30T04:31:04;20.20;;;5.05;;
41861;SDS011;27537;57.134;-2.136;2023-04-30T04:33:31;22.30;;;6.22;;
41861;SDS011;27537;57.134;-2.136;2023-04-30T04:35:58;15.82;;;4.78;;
41861;SDS011;27537;57.134;-2.136;2023-04-30T04:38:25;19.40;;;4.80;;
41861;SDS011;27537;57.134;-2.136;2023-04-30T04:40:52;20.23;;;5.28;;
41861;SDS011;27537;57.134;-2.136;2023-04-30T04:43:19;19.17;;;5.72;;
41861;SDS011;27537;57.134;-2.136;2023-04-30T04:45:47;23.55;;;4.78;;
41861;SDS011;27537;57.134;-2.136;2023-04-30T04:48:14;18.67;;;4.70;;
41861;SDS011;27537;57.134;-2.136;2023-04-30T04:50:40;25.00;;;5.78;;
41861;SDS011;27537;57.134;-2.136;2023-04-30T04:53:07;15.10;;;5.57;;
41861;SDS011;27537;57.134;-2.136;2023-04-30T04:55:34;16.48;;;5.10;;
41861;SDS011;27537;57.134;-2.136;2023-04-30T04:58:01;16.88;;;5.50;;
41861;SDS011;27537;57.134;-2.136;2023-04-30T05:00:28;19.92;;;5.70;;
41861;SDS011;27537;57.134;-2.136;2023-04-30T05:02:55;17.33;;;4.65;;
41861;SDS011;27537;57.134;-2.136;2023-04-30T05:05:22;20.45;;;6.07;;
41861;SDS011;27537;57.134;-2.136;2023-04-30T05:07:48;21.75;;;5.35;;
41861;SDS011;27537;57.134;-2.136;2023-04-30T05:10:17;17.00;;;4.22;;
41861;SDS011;27537;57.134;-2.136;2023-04-30T05:12:44;18.33;;;4.82;;
41861;SDS011;27537;57.134;-2.136;2023-04-30T05:15:11;19.75;;;5.05;;
41861;SDS011;27537;57.134;-2.136;2023-04-30T05:17:38;17.98;;;3.83;;
41861;SDS011;27537;57.134;-2.136;2023-04-30T05:20:05;22.08;;;7.15;;
41861;SDS011;27537;57.134;-2.136;2023-04-30T05:22:32;20.50;;;6.70;;
41861;SDS011;27537;57.134;-2.136;2023-04-30T05:24:59;23.23;;;7.13;;
41861;SDS011;27537;57.134;-2.136;2023-04-30T05:27:26;21.65;;;5.97;;
41861;SDS011;27537;57.134;-2.136;2023-04-30T05:29:53;16.40;;;5.65;;
41861;SDS011;27537;57.134;-2.136;2023-04-30T05:32:35;25.70;;;6.68;;
41861;SDS011;27537;57.134;-2.136;2023-04-30T05:35:02;42.85;;;8.35;;
41861;SDS011;27537;57.134;-2.136;2023-04-30T05:37:29;18.48;;;5.70;;
41861;SDS011;27537;57.134;-2.136;2023-04-30T05:39:56;27.60;;;6.70;;
41861;SDS011;27537;57.134;-2.136;2023-04-30T05:42:23;31.75;;;8.25;;
41861;SDS011;27537;57.134;-2.136;2023-04-30T05:44:49;20.80;;;6.72;;
41861;SDS011;27537;57.134;-2.136;2023-04-30T05:47:16;28.50;;;8.90;;
41861;SDS011;27537;57.134;-2.136;2023-04-30T05:49:43;26.45;;;7.72;;
41861;SDS011;27537;57.134;-2.136;2023-04-30T05:52:10;24.90;;;7.18;;
41861;SDS011;27537;57.134;-2.136;2023-04-30T05:54:37;29.48;;;7.47;;
41861;SDS011;27537;57.134;-2.136;2023-04-30T05:57:03;39.92;;;9.13;;
41861;SDS011;27537;57.134;-2.136;2023-04-30T05:59:30;27.20;;;8.43;;
41861;SDS011;27537;57.134;-2.136;2023-04-30T06:01:57;20.73;;;5.53;;
41861;SDS011;27537;57.134;-2.136;2023-04-30T06:04:24;23.15;;;6.32;;
41861;SDS011;27537;57.134;-2.136;2023-04-30T06:06:51;30.20;;;8.13;;
41861;SDS011;27537;57.134;-2.136;2023-04-30T06:09:18;25.00;;;6.95;;
41861;SDS011;27537;57.134;-2.136;2023-04-30T06:11:44;20.27;;;5.78;;
41861;SDS011;27537;57.134;-2.136;2023-04-30T06:14:15;19.48;;;5.85;;
41861;SDS011;27537;57.134;-2.136;2023-04-30T06:16:43;19.38;;;6.22;;
41861;SDS011;27537;57.134;-2.136;2023-04-30T06:19:10;15.55;;;4.97;;
41861;SDS011;27537;57.134;-2.136;2023-04-30T06:21:38;26.00;;;8.52;;
41861;SDS011;27537;57.134;-2.136;2023-04-30T06:24:05;22.90;;;6.63;;
41861;SDS011;27537;57.134;-2.136;2023-04-30T06:26:32;23.60;;;7.80;;
41861;SDS011;27537;57.134;-2.136;2023-04-30T06:28:58;28.25;;;8.13;;
41861;SDS011;27537;57.134;-2.136;2023-04-30T06:31:25;26.25;;;7.75;;
41861;SDS011;27537;57.134;-2.136;2023-04-30T06:33:52;22.88;;;7.32;;
41861;SDS011;27537;57.134;-2.136;2023-04-30T06:36:19;25.20;;;7.13;;
41861;SDS011;27537;57.134;-2.136;2023-04-30T06:38:46;27.70;;;7.97;;
41861;SDS011;27537;57.134;-2.136;2023-04-30T06:41:12;28.75;;;8.98;;
41861;SDS011;27537;57.134;-2.136;2023-04-30T06:43:39;37.95;;;9.30;;
41861;SDS011;27537;57.134;-2.136;2023-04-30T06:46:06;28.02;;;7.68;;
41861;SDS011;27537;57.134;-2.136;2023-04-30T06:48:33;39.45;;;10.30;;
41861;SDS011;27537;57.134;-2.136;2023-04-30T06:50:59;25.85;;;8.05;;
41861;SDS011;27537;57.134;-2.136;2023-04-30T06:53:26;21.55;;;7.30;;
41861;SDS011;27537;57.134;-2.136;2023-04-30T06:55:53;25.08;;;8.38;;
41861;SDS011;27537;57.134;-2.136;2023-04-30T06:58:20;31.38;;;7.75;;
41861;SDS011;27537;57.134;-2.136;2023-04-30T07:00:47;17.35;;;5.10;;
41861;SDS011;27537;57.134;-2.136;2023-04-30T07:03:14;23.00;;;6.50;;
41861;SDS011;27537;57.134;-2.136;2023-04-30T07:05:41;18.20;;;5.88;;
41861;SDS011;27537;57.134;-2.136;2023-04-30T07:08:08;27.90;;;8.32;;
41861;SDS011;27537;57.134;-2.136;2023-04-30T07:10:34;20.38;;;7.30;;
41861;SDS011;27537;57.134;-2.136;2023-04-30T07:13:01;32.78;;;6.93;;
41861;SDS011;27537;57.134;-2.136;2023-04-30T07:15:28;18.58;;;6.28;;
41861;SDS011;27537;57.134;-2.136;2023-04-30T07:17:54;20.70;;;6.22;;
41861;SDS011;27537;57.134;-2.136;2023-04-30T07:20:21;20.63;;;8.50;;
41861;SDS011;27537;57.134;-2.136;2023-04-30T07:22:48;25.98;;;6.72;;
41861;SDS011;27537;57.134;-2.136;2023-04-30T07:25:15;21.67;;;6.97;;
41861;SDS011;27537;57.134;-2.136;2023-04-30T07:27:42;26.45;;;6.78;;
41861;SDS011;27537;57.134;-2.136;2023-04-30T07:30:08;26.15;;;7.10;;
41861;SDS011;27537;57.134;-2.136;2023-04-30T07:32:36;31.63;;;8.20;;
41861;SDS011;27537;57.134;-2.136;2023-04-30T07:35:03;26.85;;;7.60;;
41861;SDS011;27537;57.134;-2.136;2023-04-30T07:37:30;23.63;;;7.00;;
41861;SDS011;27537;57.134;-2.136;2023-04-30T07:40:00;30.83;;;7.13;;
41861;SDS011;27537;57.134;-2.136;2023-04-30T07:42:28;22.83;;;7.07;;
41861;SDS011;27537;57.134;-2.136;2023-04-30T07:44:55;23.17;;;7.75;;
41861;SDS011;27537;57.134;-2.136;2023-04-30T07:47:22;17.60;;;4.93;;
41861;SDS011;27537;57.134;-2.136;2023-04-30T07:49:48;22.30;;;5.85;;
41861;SDS011;27537;57.134;-2.136;2023-04-30T07:52:15;15.82;;;5.05;;
41861;SDS011;27537;57.134;-2.136;2023-04-30T07:54:42;37.67;;;7.85;;
41861;SDS011;27537;57.134;-2.136;2023-04-30T07:57:09;22.63;;;5.85;;
41861;SDS011;27537;57.134;-2.136;2023-04-30T07:59:36;21.35;;;5.20;;
41861;SDS011;27537;57.134;-2.136;2023-04-30T08:02:03;24.42;;;6.22;;
41861;SDS011;27537;57.134;-2.136;2023-04-30T08:04:29;19.17;;;4.80;;
41861;SDS011;27537;57.134;-2.136;2023-04-30T08:06:56;24.23;;;5.15;;
41861;SDS011;27537;57.134;-2.136;2023-04-30T08:09:23;13.90;;;4.38;;
41861;SDS011;27537;57.134;-2.136;2023-04-30T08:11:50;21.23;;;4.43;;
41861;SDS011;27537;57.134;-2.136;2023-04-30T08:14:19;18.60;;;5.40;;
41861;SDS011;27537;57.134;-2.136;2023-04-30T08:16:46;16.80;;;5.45;;
41861;SDS011;27537;57.134;-2.136;2023-04-30T08:19:13;15.07;;;4.93;;
41861;SDS011;27537;57.134;-2.136;2023-04-30T08:21:40;15.82;;;5.13;;
41861;SDS011;27537;57.134;-2.136;2023-04-30T08:24:07;18.77;;;6.03;;
41861;SDS011;27537;57.134;-2.136;2023-04-30T08:26:34;14.07;;;4.68;;
41861;SDS011;27537;57.134;-2.136;2023-04-30T08:29:00;22.60;;;6.53;;
41861;SDS011;27537;57.134;-2.136;2023-04-30T08:31:27;18.20;;;5.22;;
41861;SDS011;27537;57.134;-2.136;2023-04-30T08:33:54;17.15;;;5.28;;
41861;SDS011;27537;57.134;-2.136;2023-04-30T08:36:24;19.02;;;5.60;;
41861;SDS011;27537;57.134;-2.136;2023-04-30T08:38:50;21.85;;;6.38;;
41861;SDS011;27537;57.134;-2.136;2023-04-30T08:41:17;19.88;;;8.13;;
41861;SDS011;27537;57.134;-2.136;2023-04-30T08:43:47;24.60;;;7.68;;
41861;SDS011;27537;57.134;-2.136;2023-04-30T08:46:19;28.67;;;9.40;;
41861;SDS011;27537;57.134;-2.136;2023-04-30T08:48:47;23.30;;;8.75;;
41861;SDS011;27537;57.134;-2.136;2023-04-30T08:51:14;19.05;;;6.10;;
41861;SDS011;27537;57.134;-2.136;2023-04-30T08:53:41;30.23;;;8.18;;
41861;SDS011;27537;57.134;-2.136;2023-04-30T08:56:09;28.67;;;7.35;;
41861;SDS011;27537;57.134;-2.136;2023-04-30T08:58:36;20.10;;;6.53;;
41861;SDS011;27537;57.134;-2.136;2023-04-30T09:01:05;21.90;;;5.55;;
41861;SDS011;27537;57.134;-2.136;2023-04-30T09:03:35;26.38;;;8.23;;
41861;SDS011;27537;57.134;-2.136;2023-04-30T09:06:02;29.77;;;8.65;;
41861;SDS011;27537;57.134;-2.136;2023-04-30T09:08:42;22.02;;;7.13;;
41861;SDS011;27537;57.134;-2.136;2023-04-30T09:13:52;26.70;;;7.63;;
41861;SDS011;27537;57.134;-2.136;2023-04-30T09:16:23;24.10;;;7.47;;
41861;SDS011;27537;57.134;-2.136;2023-04-30T09:18:51;31.15;;;7.97;;
41861;SDS011;27537;57.134;-2.136;2023-04-30T09:21:39;29.52;;;9.27;;
41861;SDS011;27537;57.134;-2.136;2023-04-30T09:24:05;25.25;;;7.22;;
41861;SDS011;27537;57.134;-2.136;2023-04-30T09:26:33;27.42;;;6.65;;
41861;SDS011;27537;57.134;-2.136;2023-04-30T09:29:02;23.75;;;7.20;;
41861;SDS011;27537;57.134;-2.136;2023-04-30T09:31:33;31.98;;;7.97;;
41861;SDS011;27537;57.134;-2.136;2023-04-30T09:34:02;20.95;;;5.57;;
41861;SDS011;27537;57.134;-2.136;2023-04-30T09:36:29;17.98;;;6.43;;
41861;SDS011;27537;57.134;-2.136;2023-04-30T09:39:10;33.50;;;8.48;;
41861;SDS011;27537;57.134;-2.136;2023-04-30T09:41:41;27.23;;;7.22;;
41861;SDS011;27537;57.134;-2.136;2023-04-30T09:44:24;19.67;;;6.47;;
41861;SDS011;27537;57.134;-2.136;2023-04-30T09:46:56;32.33;;;7.82;;
41861;SDS011;27537;57.134;-2.136;2023-04-30T09:49:24;20.20;;;6.18;;
41861;SDS011;27537;57.134;-2.136;2023-04-30T09:54:24;22.02;;;8.20;;
41861;SDS011;27537;57.134;-2.136;2023-04-30T09:56:55;20.27;;;8.00;;
41861;SDS011;27537;57.134;-2.136;2023-04-30T09:59:28;30.17;;;8.18;;
41861;SDS011;27537;57.134;-2.136;2023-04-30T10:01:57;21.15;;;6.55;;
41861;SDS011;27537;57.134;-2.136;2023-04-30T10:04:28;20.10;;;7.70;;
41861;SDS011;27537;57.134;-2.136;2023-04-30T10:06:57;22.30;;;5.57;;
41861;SDS011;27537;57.134;-2.136;2023-04-30T10:09:28;33.50;;;8.50;;
41861;SDS011;27537;57.134;-2.136;2023-04-30T10:12:02;23.27;;;7.57;;
41861;SDS011;27537;57.134;-2.136;2023-04-30T10:14:32;26.42;;;8.35;;
41861;SDS011;27537;57.134;-2.136;2023-04-30T10:17:07;25.50;;;8.75;;
41861;SDS011;27537;57.134;-2.136;2023-04-30T10:19:39;20.45;;;7.43;;
41861;SDS011;27537;57.134;-2.136;2023-04-30T10:22:13;21.77;;;7.60;;
41861;SDS011;27537;57.134;-2.136;2023-04-30T10:24:41;27.40;;;7.40;;
41861;SDS011;27537;57.134;-2.136;2023-04-30T10:27:10;18.63;;;6.60;;
41861;SDS011;27537;57.134;-2.136;2023-04-30T10:29:37;18.88;;;7.00;;
41861;SDS011;27537;57.134;-2.136;2023-04-30T10:32:04;23.77;;;7.95;;
41861;SDS011;27537;57.134;-2.136;2023-04-30T10:39:52;26.55;;;9.45;;
41861;SDS011;27537;57.134;-2.136;2023-04-30T10:42:19;21.48;;;7.68;;
41861;SDS011;27537;57.134;-2.136;2023-04-30T10:44:50;23.33;;;7.07;;
41861;SDS011;27537;57.134;-2.136;2023-04-30T10:47:17;25.67;;;8.10;;
41861;SDS011;27537;57.134;-2.136;2023-04-30T10:49:50;22.70;;;7.97;;
41861;SDS011;27537;57.134;-2.136;2023-04-30T10:52:26;21.38;;;6.85;;
41861;SDS011;27537;57.134;-2.136;2023-04-30T10:54:55;26.77;;;10.27;;
41861;SDS011;27537;57.134;-2.136;2023-04-30T10:57:21;27.67;;;8.20;;
41861;SDS011;27537;57.134;-2.136;2023-04-30T11:02:40;20.20;;;9.68;;
41861;SDS011;27537;57.134;-2.136;2023-04-30T11:07:41;20.83;;;7.80;;
41861;SDS011;27537;57.134;-2.136;2023-04-30T11:10:32;22.60;;;7.75;;
41861;SDS011;27537;57.134;-2.136;2023-04-30T11:13:04;19.88;;;7.68;;
41861;SDS011;27537;57.134;-2.136;2023-04-30T11:15:42;23.75;;;8.05;;
41861;SDS011;27537;57.134;-2.136;2023-04-30T11:18:11;19.90;;;6.65;;
41861;SDS011;27537;57.134;-2.136;2023-04-30T11:20:39;21.23;;;7.90;;
41861;SDS011;27537;57.134;-2.136;2023-04-30T11:23:13;22.77;;;8.75;;
41861;SDS011;27537;57.134;-2.136;2023-04-30T11:26:04;24.30;;;8.20;;
41861;SDS011;27537;57.134;-2.136;2023-04-30T11:28:33;22.55;;;8.13;;
41861;SDS011;27537;57.134;-2.136;2023-04-30T11:31:03;23.88;;;9.07;;
41861;SDS011;27537;57.134;-2.136;2023-04-30T11:33:31;19.63;;;8.50;;
41861;SDS011;27537;57.134;-2.136;2023-04-30T11:35:59;29.30;;;10.65;;
41861;SDS011;27537;57.134;-2.136;2023-04-30T11:38:28;29.63;;;8.95;;
41861;SDS011;27537;57.134;-2.136;2023-04-30T11:41:05;20.70;;;8.60;;
41861;SDS011;27537;57.134;-2.136;2023-04-30T11:43:32;34.30;;;10.57;;
41861;SDS011;27537;57.134;-2.136;2023-04-30T11:46:03;25.05;;;9.77;;
41861;SDS011;27537;57.134;-2.136;2023-04-30T11:48:31;24.52;;;9.18;;
41861;SDS011;27537;57.134;-2.136;2023-04-30T11:51:05;21.30;;;7.13;;
41861;SDS011;27537;57.134;-2.136;2023-04-30T11:53:44;31.95;;;10.85;;
41861;SDS011;27537;57.134;-2.136;2023-04-30T11:56:12;28.45;;;9.20;;
41861;SDS011;27537;57.134;-2.136;2023-04-30T11:58:39;22.77;;;7.70;;
41861;SDS011;27537;57.134;-2.136;2023-04-30T12:01:06;24.88;;;7.60;;
41861;SDS011;27537;57.134;-2.136;2023-04-30T12:06:20;20.90;;;8.18;;
41861;SDS011;27537;57.134;-2.136;2023-04-30T12:08:52;24.30;;;9.63;;
41861;SDS011;27537;57.134;-2.136;2023-04-30T12:11:21;29.27;;;11.10;;
41861;SDS011;27537;57.134;-2.136;2023-04-30T12:13:51;20.50;;;7.57;;
41861;SDS011;27537;57.134;-2.136;2023-04-30T12:16:19;19.23;;;8.25;;
41861;SDS011;27537;57.134;-2.136;2023-04-30T12:18:46;24.08;;;10.07;;
41861;SDS011;27537;57.134;-2.136;2023-04-30T12:21:14;20.77;;;7.72;;
41861;SDS011;27537;57.134;-2.136;2023-04-30T12:23:44;15.35;;;7.15;;
41861;SDS011;27537;57.134;-2.136;2023-04-30T12:26:10;32.92;;;9.90;;
41861;SDS011;27537;57.134;-2.136;2023-04-30T12:28:37;22.05;;;9.25;;
41861;SDS011;27537;57.134;-2.136;2023-04-30T12:31:04;19.38;;;8.45;;
41861;SDS011;27537;57.134;-2.136;2023-04-30T12:33:31;22.33;;;7.75;;
41861;SDS011;27537;57.134;-2.136;2023-04-30T12:35:58;23.80;;;7.55;;
41861;SDS011;27537;57.134;-2.136;2023-04-30T12:38:25;21.40;;;8.65;;
41861;SDS011;27537;57.134;-2.136;2023-04-30T12:40:52;18.85;;;8.45;;
41861;SDS011;27537;57.134;-2.136;2023-04-30T12:43:19;22.88;;;10.88;;
41861;SDS011;27537;57.134;-2.136;2023-04-30T12:48:26;21.67;;;8.60;;
41861;SDS011;27537;57.134;-2.136;2023-04-30T12:50:54;15.60;;;7.20;;
41861;SDS011;27537;57.134;-2.136;2023-04-30T12:53:24;19.10;;;9.00;;
41861;SDS011;27537;57.134;-2.136;2023-04-30T12:56:06;18.80;;;6.75;;
41861;SDS011;27537;57.134;-2.136;2023-04-30T12:58:34;22.73;;;11.02;;
41861;SDS011;27537;57.134;-2.136;2023-04-30T13:01:04;22.10;;;7.90;;
41861;SDS011;27537;57.134;-2.136;2023-04-30T13:03:35;16.85;;;7.45;;
41861;SDS011;27537;57.134;-2.136;2023-04-30T13:06:02;26.73;;;11.25;;
41861;SDS011;27537;57.134;-2.136;2023-04-30T13:08:29;20.63;;;8.70;;
41861;SDS011;27537;57.134;-2.136;2023-04-30T13:11:02;20.02;;;9.60;;
41861;SDS011;27537;57.134;-2.136;2023-04-30T13:13:29;25.75;;;11.20;;
41861;SDS011;27537;57.134;-2.136;2023-04-30T13:15:56;19.08;;;9.20;;
41861;SDS011;27537;57.134;-2.136;2023-04-30T13:18:23;20.40;;;9.20;;
41861;SDS011;27537;57.134;-2.136;2023-04-30T13:20:50;26.98;;;8.57;;
41861;SDS011;27537;57.134;-2.136;2023-04-30T13:23:17;20.63;;;9.73;;
41861;SDS011;27537;57.134;-2.136;2023-04-30T13:25:44;30.95;;;10.00;;
41861;SDS011;27537;57.134;-2.136;2023-04-30T13:28:11;20.73;;;8.10;;
41861;SDS011;27537;57.134;-2.136;2023-04-30T13:30:38;23.00;;;11.10;;
41861;SDS011;27537;57.134;-2.136;2023-04-30T13:33:06;19.58;;;7.80;;
41861;SDS011;27537;57.134;-2.136;2023-04-30T13:35:33;23.58;;;8.25;;
41861;SDS011;27537;57.134;-2.136;2023-04-30T13:37:59;17.02;;;6.90;;
41861;SDS011;27537;57.134;-2.136;2023-04-30T13:40:26;24.02;;;9.60;;
41861;SDS011;27537;57.134;-2.136;2023-04-30T13:42:53;22.35;;;9.45;;
41861;SDS011;27537;57.134;-2.136;2023-04-30T13:45:20;23.65;;;9.80;;
41861;SDS011;27537;57.134;-2.136;2023-04-30T13:47:47;25.65;;;11.68;;
41861;SDS011;27537;57.134;-2.136;2023-04-30T13:50:13;21.90;;;9.93;;
41861;SDS011;27537;57.134;-2.136;2023-04-30T13:52:40;21.27;;;9.20;;
41861;SDS011;27537;57.134;-2.136;2023-04-30T13:55:07;18.10;;;9.70;;
41861;SDS011;27537;57.134;-2.136;2023-04-30T13:57:35;16.70;;;8.48;;
41861;SDS011;27537;57.134;-2.136;2023-04-30T14:00:02;20.58;;;10.20;;
41861;SDS011;27537;57.134;-2.136;2023-04-30T14:02:30;21.17;;;10.02;;
41861;SDS011;27537;57.134;-2.136;2023-04-30T14:04:56;18.77;;;7.78;;
41861;SDS011;27537;57.134;-2.136;2023-04-30T14:07:32;15.88;;;6.88;;
41861;SDS011;27537;57.134;-2.136;2023-04-30T14:09:59;16.95;;;7.35;;
41861;SDS011;27537;57.134;-2.136;2023-04-30T14:12:25;13.38;;;6.50;;
41861;SDS011;27537;57.134;-2.136;2023-04-30T14:14:52;19.42;;;9.30;;
41861;SDS011;27537;57.134;-2.136;2023-04-30T14:17:19;17.90;;;6.47;;
41861;SDS011;27537;57.134;-2.136;2023-04-30T14:19:46;18.90;;;9.50;;
41861;SDS011;27537;57.134;-2.136;2023-04-30T14:22:13;23.75;;;8.05;;
41861;SDS011;27537;57.134;-2.136;2023-04-30T14:24:40;15.73;;;8.27;;
41861;SDS011;27537;57.134;-2.136;2023-04-30T14:27:07;16.38;;;8.77;;
41861;SDS011;27537;57.134;-2.136;2023-04-30T14:29:33;19.60;;;10.00;;
41861;SDS011;27537;57.134;-2.136;2023-04-30T14:32:00;18.95;;;10.80;;
41861;SDS011;27537;57.134;-2.136;2023-04-30T14:34:27;17.77;;;7.40;;
41861;SDS011;27537;57.134;-2.136;2023-04-30T14:36:54;14.10;;;7.55;;
41861;SDS011;27537;57.134;-2.136;2023-04-30T14:39:24;19.88;;;10.45;;
41861;SDS011;27537;57.134;-2.136;2023-04-30T14:41:52;24.75;;;10.02;;
41861;SDS011;27537;57.134;-2.136;2023-04-30T14:44:21;19.25;;;9.48;;
41861;SDS011;27537;57.134;-2.136;2023-04-30T14:46:52;15.27;;;8.10;;
41861;SDS011;27537;57.134;-2.136;2023-04-30T14:49:19;16.77;;;7.50;;
41861;SDS011;27537;57.134;-2.136;2023-04-30T14:51:45;19.70;;;9.38;;
41861;SDS011;27537;57.134;-2.136;2023-04-30T14:54:12;31.13;;;13.50;;
41861;SDS011;27537;57.134;-2.136;2023-04-30T14:56:39;19.15;;;8.95;;
41861;SDS011;27537;57.134;-2.136;2023-04-30T14:59:06;20.33;;;10.77;;
41861;SDS011;27537;57.134;-2.136;2023-04-30T15:01:33;18.70;;;9.50;;
41861;SDS011;27537;57.134;-2.136;2023-04-30T15:04:00;19.80;;;10.55;;
41861;SDS011;27537;57.134;-2.136;2023-04-30T15:06:27;17.20;;;8.43;;
41861;SDS011;27537;57.134;-2.136;2023-04-30T15:08:54;19.08;;;9.13;;